createdAt,value
2022-12-31T00:01:50.178Z,0.90
2022-12-31T00:04:20.698Z,1.00
2022-12-31T00:06:51.595Z,0.80
2022-12-31T00:09:21.960Z,0.90
2022-12-31T00:11:52.364Z,0.80
2022-12-31T00:14:22.838Z,0.70
2022-12-31T00:16:53.189Z,0.70
2022-12-31T00:19:23.610Z,0.90
2022-12-31T00:21:53.943Z,1.10
2022-12-31T00:24:24.590Z,0.90
2022-12-31T00:26:54.946Z,0.90
2022-12-31T00:29:25.912Z,0.80
2022-12-31T00:31:56.271Z,0.80
2022-12-31T00:34:26.934Z,0.90
2022-12-31T00:36:57.294Z,0.80
2022-12-31T00:39:27.785Z,0.80
2022-12-31T00:41:58.663Z,0.90
2022-12-31T00:44:29.062Z,0.80
2022-12-31T00:46:59.515Z,0.80
2022-12-31T00:49:29.843Z,0.90
2022-12-31T00:52:00.204Z,0.90
2022-12-31T00:54:30.535Z,1.10
2022-12-31T00:57:01.015Z,0.80
2022-12-31T00:59:31.426Z,1.00
2022-12-31T01:02:02.217Z,1.00
2022-12-31T01:04:33.059Z,1.40
2022-12-31T01:07:03.840Z,0.80
2022-12-31T01:09:34.513Z,0.70
2022-12-31T01:12:05.342Z,0.70
2022-12-31T01:14:35.675Z,0.70
2022-12-31T01:17:06.007Z,0.80
2022-12-31T01:19:36.322Z,0.50
2022-12-31T01:22:06.648Z,0.60
2022-12-31T01:24:37.048Z,0.60
2022-12-31T01:27:07.507Z,0.60
2022-12-31T01:29:38.107Z,0.60
2022-12-31T01:32:08.693Z,0.60
2022-12-31T01:34:39.000Z,0.50
2022-12-31T01:37:09.923Z,1.00
2022-12-31T01:39:40.285Z,0.50
2022-12-31T01:42:13.121Z,0.70
2022-12-31T01:44:56.041Z,0.60
2022-12-31T01:47:37.618Z,0.50
2022-12-31T01:50:12.810Z,0.70
2022-12-31T01:52:45.649Z,0.70
2022-12-31T01:57:47.441Z,0.60
2022-12-31T02:00:18.231Z,0.70
2022-12-31T02:02:48.904Z,0.60
2022-12-31T02:05:23.795Z,0.60
2022-12-31T02:07:54.541Z,0.70
2022-12-31T02:10:24.834Z,0.80
2022-12-31T02:12:55.342Z,0.60
2022-12-31T02:15:36.493Z,0.80
2022-12-31T02:18:12.974Z,0.60
2022-12-31T02:21:14.250Z,0.70
2022-12-31T02:24:06.329Z,0.70
2022-12-31T02:26:49.598Z,1.10
2022-12-31T02:30:00.077Z,0.70
2022-12-31T02:32:40.104Z,0.80
2022-12-31T02:35:13.576Z,0.70
2022-12-31T02:37:45.931Z,0.70
2022-12-31T02:40:18.957Z,0.90
2022-12-31T02:42:55.099Z,0.80
2022-12-31T02:45:30.428Z,0.80
2022-12-31T02:48:13.977Z,0.90
2022-12-31T02:50:55.385Z,0.80
2022-12-31T02:53:40.453Z,0.80
2022-12-31T02:56:14.220Z,0.80
2022-12-31T02:59:07.938Z,0.90
2022-12-31T03:01:58.559Z,0.90
2022-12-31T03:04:36.330Z,0.90
2022-12-31T03:07:08.408Z,0.90
2022-12-31T03:09:39.381Z,1.30
2022-12-31T03:12:29.776Z,0.90
2022-12-31T03:15:00.341Z,1.00
2022-12-31T03:17:30.697Z,1.10
2022-12-31T03:20:22.045Z,0.80
2022-12-31T03:22:52.463Z,0.90
2022-12-31T03:25:35.573Z,1.30
2022-12-31T03:30:37.258Z,1.60
2022-12-31T03:33:08.511Z,1.20
2022-12-31T03:35:40.900Z,1.00
2022-12-31T03:38:11.224Z,1.10
2022-12-31T03:40:42.778Z,1.30
2022-12-31T03:43:13.144Z,1.20
2022-12-31T03:45:43.601Z,1.20
2022-12-31T03:48:13.957Z,1.50
2022-12-31T03:50:44.244Z,1.40
2022-12-31T03:53:14.629Z,1.20
2022-12-31T03:55:44.932Z,2.00
2022-12-31T03:58:15.235Z,1.70
2022-12-31T04:00:45.788Z,1.60
2022-12-31T04:03:16.394Z,1.70
2022-12-31T04:05:46.941Z,1.70
2022-12-31T04:08:17.321Z,1.20
2022-12-31T04:10:48.120Z,1.50
2022-12-31T04:13:18.562Z,2.00
2022-12-31T04:15:52.325Z,1.60
2022-12-31T04:18:23.026Z,1.60
2022-12-31T04:20:53.364Z,1.30
2022-12-31T04:23:23.652Z,1.40
2022-12-31T04:25:54.301Z,1.20
2022-12-31T04:28:24.834Z,1.40
2022-12-31T04:30:55.169Z,1.30
2022-12-31T04:33:25.558Z,2.00
2022-12-31T04:36:00.877Z,1.50
2022-12-31T04:38:31.248Z,1.40
2022-12-31T04:41:20.643Z,1.40
2022-12-31T04:43:52.370Z,1.40
2022-12-31T04:46:24.500Z,1.40
2022-12-31T04:48:55.094Z,1.30
2022-12-31T04:51:25.932Z,1.50
2022-12-31T04:53:56.354Z,1.40
2022-12-31T04:56:27.387Z,1.60
2022-12-31T04:58:57.936Z,1.80
2022-12-31T05:01:28.324Z,1.40
2022-12-31T05:03:58.694Z,1.70
2022-12-31T05:06:28.977Z,1.30
2022-12-31T05:08:59.559Z,1.70
2022-12-31T05:11:31.029Z,2.00
2022-12-31T05:14:01.337Z,1.70
2022-12-31T05:16:31.719Z,1.60
2022-12-31T05:19:02.033Z,1.70
2022-12-31T05:21:32.340Z,1.50
2022-12-31T05:24:02.662Z,1.40
2022-12-31T05:26:32.979Z,1.50
2022-12-31T05:29:03.339Z,1.40
2022-12-31T05:31:33.656Z,1.60
2022-12-31T05:34:04.474Z,1.50
2022-12-31T05:36:34.762Z,1.80
2022-12-31T05:39:05.184Z,2.40
2022-12-31T05:41:35.476Z,1.60
2022-12-31T05:44:06.123Z,2.10
2022-12-31T05:46:36.572Z,1.90
2022-12-31T05:49:06.863Z,1.60
2022-12-31T05:51:37.563Z,1.10
2022-12-31T05:54:08.072Z,1.40
2022-12-31T05:56:40.185Z,1.50
2022-12-31T05:59:10.490Z,1.40
2022-12-31T06:01:40.790Z,1.30
2022-12-31T06:04:11.289Z,1.20
2022-12-31T06:06:41.659Z,1.80
2022-12-31T06:09:12.053Z,1.30
2022-12-31T06:11:42.387Z,1.50
2022-12-31T06:14:13.081Z,1.60
2022-12-31T06:16:43.506Z,1.50
2022-12-31T06:19:13.865Z,1.50
2022-12-31T06:21:44.199Z,1.30
2022-12-31T06:24:14.570Z,1.60
2022-12-31T06:26:44.948Z,1.20
2022-12-31T06:29:15.306Z,1.40
2022-12-31T06:31:45.624Z,1.30
2022-12-31T06:34:15.993Z,1.30
2022-12-31T06:36:46.388Z,1.60
2022-12-31T06:39:17.013Z,1.60
2022-12-31T06:41:47.444Z,1.10
2022-12-31T06:44:17.804Z,1.10
2022-12-31T06:46:48.190Z,1.60
2022-12-31T06:49:20.028Z,1.80
2022-12-31T06:51:50.325Z,1.30
2022-12-31T06:54:20.937Z,1.50
2022-12-31T06:56:52.185Z,1.20
2022-12-31T06:59:28.732Z,1.70
2022-12-31T07:02:27.730Z,1.60
2022-12-31T07:05:25.251Z,1.10
2022-12-31T07:08:03.390Z,1.60
2022-12-31T07:10:40.083Z,1.50
2022-12-31T07:13:28.185Z,1.30
2022-12-31T07:16:06.838Z,1.50
2022-12-31T07:18:42.544Z,1.20
2022-12-31T07:21:16.493Z,1.40
2022-12-31T07:23:47.741Z,1.40
2022-12-31T07:26:23.467Z,1.60
2022-12-31T07:29:01.468Z,1.00
2022-12-31T07:31:39.514Z,1.60
2022-12-31T07:34:15.613Z,1.40
2022-12-31T07:37:02.466Z,1.10
2022-12-31T07:39:38.827Z,1.20
2022-12-31T07:42:15.332Z,1.20
2022-12-31T07:44:54.702Z,1.10
2022-12-31T07:47:28.135Z,1.20
2022-12-31T07:49:59.818Z,1.20
2022-12-31T07:52:31.032Z,1.40
2022-12-31T07:55:01.335Z,1.20
2022-12-31T07:57:36.772Z,1.20
2022-12-31T08:00:13.501Z,0.90
2022-12-31T08:03:03.598Z,1.20
2022-12-31T08:05:37.915Z,1.20
2022-12-31T08:08:24.371Z,1.20
2022-12-31T08:11:04.517Z,1.20
2022-12-31T08:13:35.605Z,1.40
2022-12-31T08:16:09.413Z,1.50
2022-12-31T08:18:40.647Z,1.20
2022-12-31T08:21:18.888Z,1.50
2022-12-31T08:23:58.244Z,1.50
2022-12-31T08:26:36.237Z,1.50
2022-12-31T08:29:13.538Z,1.40
2022-12-31T08:31:51.488Z,1.40
2022-12-31T08:34:26.353Z,1.20
2022-12-31T08:37:04.098Z,1.50
2022-12-31T08:39:45.116Z,1.60
2022-12-31T08:42:26.822Z,1.40
2022-12-31T08:45:04.793Z,1.20
2022-12-31T08:47:42.113Z,1.60
2022-12-31T08:50:19.286Z,3.00
2022-12-31T08:52:50.970Z,1.60
2022-12-31T08:55:23.129Z,1.70
2022-12-31T08:58:02.546Z,1.70
2022-12-31T09:00:33.190Z,1.50
2022-12-31T09:03:20.995Z,1.60
2022-12-31T09:06:00.511Z,1.60
2022-12-31T09:08:38.144Z,1.50
2022-12-31T09:11:19.190Z,1.50
2022-12-31T09:14:04.507Z,1.50
2022-12-31T09:16:43.743Z,1.30
2022-12-31T09:19:14.420Z,1.80
2022-12-31T09:21:46.094Z,1.80
2022-12-31T09:24:18.298Z,1.60
2022-12-31T09:26:55.540Z,1.70
2022-12-31T09:29:42.350Z,1.50
2022-12-31T09:32:22.354Z,1.80
2022-12-31T09:34:57.775Z,1.60
2022-12-31T09:37:40.283Z,1.80
2022-12-31T09:40:38.817Z,1.80
2022-12-31T09:43:46.487Z,1.60
2022-12-31T09:46:32.026Z,1.80
2022-12-31T09:49:26.703Z,1.70
2022-12-31T09:52:05.912Z,1.60
2022-12-31T09:54:53.956Z,3.20
2022-12-31T09:57:40.698Z,1.80
2022-12-31T10:00:16.719Z,2.00
2022-12-31T10:03:05.484Z,1.70
2022-12-31T10:05:53.766Z,2.30
2022-12-31T10:08:39.861Z,2.00
2022-12-31T10:11:17.550Z,1.80
2022-12-31T10:13:55.074Z,1.70
2022-12-31T10:16:37.653Z,1.60
2022-12-31T10:19:35.546Z,1.50
2022-12-31T10:22:15.378Z,1.70
2022-12-31T10:25:03.111Z,1.90
2022-12-31T10:27:44.931Z,1.90
2022-12-31T10:30:19.555Z,1.90
2022-12-31T10:33:00.404Z,2.10
2022-12-31T10:35:44.193Z,1.70
2022-12-31T10:38:25.469Z,1.80
2022-12-31T10:41:25.294Z,1.90
2022-12-31T10:44:31.542Z,2.20
2022-12-31T10:47:22.357Z,2.00
2022-12-31T10:50:20.034Z,1.80
2022-12-31T10:53:05.684Z,2.30
2022-12-31T10:56:07.326Z,1.90
2022-12-31T10:59:01.213Z,2.10
2022-12-31T11:01:40.105Z,1.70
2022-12-31T11:04:34.889Z,2.10
2022-12-31T11:07:32.123Z,2.40
2022-12-31T11:10:17.502Z,1.90
2022-12-31T11:13:23.128Z,2.50
2022-12-31T11:16:10.406Z,2.00
2022-12-31T11:18:48.969Z,1.80
2022-12-31T11:21:29.122Z,1.90
2022-12-31T11:24:06.330Z,2.00
2022-12-31T11:26:48.372Z,2.00
2022-12-31T11:29:29.100Z,1.90
2022-12-31T11:32:08.362Z,1.80
2022-12-31T11:34:59.124Z,1.70
2022-12-31T11:37:36.685Z,1.80
2022-12-31T11:40:22.613Z,2.30
2022-12-31T11:42:58.736Z,2.20
2022-12-31T11:45:50.808Z,2.40
2022-12-31T11:48:30.652Z,2.30
2022-12-31T11:51:11.431Z,2.20
2022-12-31T11:53:57.384Z,1.90
2022-12-31T11:56:31.058Z,2.20
2022-12-31T11:59:07.772Z,2.00
2022-12-31T12:01:49.017Z,2.10
2022-12-31T12:04:19.511Z,2.10
2022-12-31T12:06:51.763Z,1.80
2022-12-31T12:09:27.242Z,2.20
2022-12-31T12:12:03.184Z,2.10
2022-12-31T12:14:36.398Z,2.20
2022-12-31T12:17:09.800Z,2.10
2022-12-31T12:19:46.444Z,2.30
2022-12-31T12:22:22.685Z,2.20
2022-12-31T12:24:57.627Z,2.20
2022-12-31T12:27:33.389Z,2.30
2022-12-31T12:30:15.419Z,2.00
2022-12-31T12:32:54.018Z,2.10
2022-12-31T12:35:29.103Z,2.00
2022-12-31T12:38:04.993Z,2.40
2022-12-31T12:40:36.146Z,2.40
2022-12-31T12:43:06.860Z,2.20
2022-12-31T12:45:46.399Z,2.00
2022-12-31T12:48:26.590Z,2.00
2022-12-31T12:50:57.365Z,2.30
2022-12-31T12:53:35.746Z,2.00
2022-12-31T12:56:13.265Z,2.40
2022-12-31T12:58:55.500Z,2.10
2022-12-31T13:01:34.845Z,2.10
2022-12-31T13:04:36.177Z,2.20
2022-12-31T13:07:16.001Z,2.20
2022-12-31T13:09:59.501Z,2.30
2022-12-31T13:15:22.642Z,2.00
2022-12-31T13:18:04.129Z,2.30
2022-12-31T13:20:37.808Z,2.00
2022-12-31T13:23:16.100Z,2.20
2022-12-31T13:25:57.811Z,2.00
2022-12-31T13:28:29.386Z,2.00
2022-12-31T13:31:06.820Z,2.00
2022-12-31T13:33:40.958Z,2.50
2022-12-31T13:36:15.330Z,2.00
2022-12-31T13:38:49.793Z,1.80
2022-12-31T13:41:24.035Z,2.30
2022-12-31T13:43:59.664Z,2.00
2022-12-31T13:46:38.772Z,1.50
2022-12-31T13:49:18.204Z,1.60
2022-12-31T13:51:50.518Z,2.20
2022-12-31T13:54:29.918Z,2.10
2022-12-31T13:57:04.452Z,1.70
2022-12-31T13:59:37.909Z,2.00
2022-12-31T14:02:14.292Z,1.80
2022-12-31T14:04:49.784Z,2.00
2022-12-31T14:07:23.298Z,1.60
2022-12-31T14:09:53.658Z,1.90
2022-12-31T14:12:33.343Z,2.10
2022-12-31T14:15:12.042Z,2.10
2022-12-31T14:17:46.456Z,1.80
2022-12-31T14:20:22.678Z,1.80
2022-12-31T14:22:57.313Z,2.00
2022-12-31T14:25:30.462Z,1.60
2022-12-31T14:28:04.237Z,1.60
2022-12-31T14:30:37.405Z,1.40
2022-12-31T14:33:29.536Z,1.90
2022-12-31T14:36:10.915Z,1.70
2022-12-31T14:38:55.846Z,1.50
2022-12-31T14:41:35.091Z,1.60
2022-12-31T14:44:14.564Z,1.80
2022-12-31T14:46:56.162Z,1.60
2022-12-31T14:49:42.495Z,1.80
2022-12-31T14:52:22.537Z,1.60
2022-12-31T14:55:03.131Z,1.60
2022-12-31T14:58:17.260Z,1.90
2022-12-31T15:00:35.169Z,1.60
2022-12-31T15:03:07.809Z,1.50
2022-12-31T15:05:39.298Z,1.60
2022-12-31T15:08:26.300Z,1.60
2022-12-31T15:11:29.987Z,2.20
2022-12-31T15:14:18.562Z,2.10
2022-12-31T15:16:53.786Z,1.60
2022-12-31T15:19:52.865Z,1.70
2022-12-31T15:22:33.515Z,1.70
2022-12-31T15:25:04.531Z,1.70
2022-12-31T15:27:37.018Z,1.50
2022-12-31T15:30:27.121Z,1.90
2022-12-31T15:32:58.549Z,1.50
2022-12-31T15:35:32.478Z,1.80
2022-12-31T15:38:04.974Z,1.70
2022-12-31T15:40:45.745Z,1.70
2022-12-31T15:43:19.566Z,1.40
2022-12-31T15:45:52.155Z,1.50
2022-12-31T15:48:25.823Z,2.30
2022-12-31T15:50:58.691Z,1.50
2022-12-31T15:56:01.766Z,1.50
2022-12-31T15:58:35.747Z,1.50
2022-12-31T16:01:13.912Z,1.60
2022-12-31T16:03:48.224Z,1.50
2022-12-31T16:06:19.185Z,1.60
2022-12-31T16:08:51.650Z,1.90
2022-12-31T16:11:22.120Z,1.60
2022-12-31T16:13:55.254Z,1.80
2022-12-31T16:16:27.319Z,1.40
2022-12-31T16:18:58.366Z,1.20
2022-12-31T16:21:32.519Z,1.50
2022-12-31T16:24:06.771Z,1.80
2022-12-31T16:26:44.772Z,1.90
2022-12-31T16:29:16.671Z,1.90
2022-12-31T16:31:47.953Z,1.80
2022-12-31T16:34:21.934Z,1.60
2022-12-31T16:37:00.600Z,2.00
2022-12-31T16:39:33.858Z,2.70
2022-12-31T16:42:20.486Z,1.80
2022-12-31T16:44:52.818Z,1.70
2022-12-31T16:47:25.724Z,1.70
2022-12-31T16:50:03.968Z,1.70
2022-12-31T16:52:36.944Z,1.70
2022-12-31T16:57:40.619Z,1.70
2022-12-31T17:00:20.839Z,1.70
2022-12-31T17:08:49.108Z,1.60
2022-12-31T17:11:28.706Z,1.70
2022-12-31T17:14:02.023Z,2.20
2022-12-31T17:16:32.414Z,2.40
2022-12-31T17:19:56.788Z,2.70
2022-12-31T17:22:35.711Z,1.90
2022-12-31T17:25:09.652Z,1.80
2022-12-31T17:27:40.021Z,1.80
2022-12-31T17:30:40.133Z,2.40
2022-12-31T17:33:33.923Z,1.80
2022-12-31T17:43:43.527Z,1.80
2022-12-31T17:46:16.219Z,1.70
2022-12-31T17:48:49.229Z,2.10
2022-12-31T17:51:24.371Z,1.80
2022-12-31T17:53:55.136Z,1.80
2022-12-31T17:56:25.715Z,2.00
2022-12-31T17:58:56.335Z,1.50
2022-12-31T18:01:26.854Z,1.30
2022-12-31T18:03:57.574Z,1.70
2022-12-31T18:06:28.190Z,1.90
2022-12-31T18:08:58.768Z,1.70
2022-12-31T18:11:29.156Z,1.90
2022-12-31T18:13:59.639Z,1.60
2022-12-31T18:16:30.050Z,1.90
2022-12-31T18:19:01.923Z,1.60
2022-12-31T18:21:34.607Z,1.70
2022-12-31T18:24:07.086Z,1.70
2022-12-31T18:26:37.493Z,4.50
2022-12-31T18:29:16.845Z,2.10
2022-12-31T18:31:49.337Z,2.20
2022-12-31T18:34:20.071Z,3.00
2022-12-31T18:36:50.442Z,1.80
2022-12-31T18:39:20.793Z,2.40
2022-12-31T18:41:51.365Z,2.10
2022-12-31T18:44:21.923Z,1.80
2022-12-31T18:46:52.196Z,2.60
2022-12-31T18:49:26.031Z,2.40
2022-12-31T18:51:57.063Z,3.60
2022-12-31T18:54:27.431Z,3.20
2022-12-31T18:56:57.833Z,2.20
2022-12-31T18:59:28.187Z,2.30
2022-12-31T19:01:59.732Z,2.40
2022-12-31T19:04:30.255Z,3.90
2022-12-31T19:07:00.896Z,2.60
2022-12-31T19:09:45.188Z,2.70
2022-12-31T19:12:17.236Z,2.50
2022-12-31T19:14:47.703Z,2.70
2022-12-31T19:17:18.026Z,1.90
2022-12-31T19:19:48.381Z,2.30
2022-12-31T19:22:18.855Z,2.50
2022-12-31T19:24:49.320Z,2.80
2022-12-31T19:27:19.650Z,2.60
2022-12-31T19:29:50.024Z,2.70
2022-12-31T19:32:20.364Z,2.60
2022-12-31T19:34:50.739Z,3.00
2022-12-31T19:37:21.141Z,2.40
2022-12-31T19:39:51.494Z,2.00
2022-12-31T19:42:21.886Z,2.40
2022-12-31T19:44:52.275Z,2.60
2022-12-31T19:47:22.556Z,2.30
2022-12-31T19:49:52.980Z,2.40
2022-12-31T19:52:23.426Z,2.10
2022-12-31T19:54:53.986Z,2.30
2022-12-31T19:57:24.464Z,2.10
2022-12-31T19:59:54.838Z,2.10
2022-12-31T20:02:25.325Z,3.70
2022-12-31T20:04:55.998Z,2.50
2022-12-31T20:07:27.392Z,2.20
2022-12-31T20:09:57.943Z,2.60
2022-12-31T20:12:29.582Z,3.00
2022-12-31T20:15:00.070Z,2.90
2022-12-31T20:17:30.665Z,2.30
2022-12-31T20:20:01.764Z,2.30
2022-12-31T20:22:32.919Z,2.00
2022-12-31T20:25:03.372Z,2.30
2022-12-31T20:27:33.899Z,3.50
2022-12-31T20:30:04.918Z,2.60
2022-12-31T20:32:35.329Z,2.90
2022-12-31T20:35:06.821Z,2.40
2022-12-31T20:37:37.329Z,2.30
2022-12-31T20:40:09.702Z,4.10
2022-12-31T20:42:40.692Z,1.90
2022-12-31T20:45:12.558Z,2.20
2022-12-31T20:47:42.979Z,2.70
2022-12-31T20:50:13.426Z,2.40
2022-12-31T20:52:44.134Z,2.40
2022-12-31T20:55:15.132Z,2.20
2022-12-31T20:57:45.573Z,2.20
2022-12-31T21:00:17.070Z,2.10
2022-12-31T21:02:56.347Z,2.40
2022-12-31T21:05:30.940Z,2.30
2022-12-31T21:08:01.459Z,2.50
2022-12-31T21:10:31.861Z,2.60
2022-12-31T21:13:02.333Z,5.00
2022-12-31T21:15:32.816Z,3.70
2022-12-31T21:18:03.418Z,3.60
2022-12-31T21:20:33.951Z,2.00
2022-12-31T21:23:04.308Z,2.60
2022-12-31T21:25:35.385Z,3.00
2022-12-31T21:28:05.950Z,2.50
2022-12-31T21:30:36.520Z,2.10
2022-12-31T21:33:07.559Z,2.90
2022-12-31T21:35:45.778Z,7.30
2022-12-31T21:38:22.442Z,2.80
2022-12-31T21:40:52.944Z,2.60
2022-12-31T21:43:23.364Z,2.90
2022-12-31T21:46:03.586Z,2.70
2022-12-31T21:48:34.299Z,2.60
2022-12-31T21:51:12.790Z,2.80
2022-12-31T21:53:43.175Z,2.70
2022-12-31T21:56:14.660Z,3.00
2022-12-31T21:58:46.328Z,2.80
2022-12-31T22:01:37.693Z,3.00
2022-12-31T22:04:28.289Z,2.60
2022-12-31T22:06:59.152Z,2.60
2022-12-31T22:09:29.460Z,3.30
2022-12-31T22:11:59.994Z,2.50
2022-12-31T22:14:30.291Z,2.30
2022-12-31T22:17:00.737Z,2.80
2022-12-31T22:19:31.160Z,3.20
2022-12-31T22:22:02.251Z,2.90
2022-12-31T22:24:32.626Z,2.90
2022-12-31T22:27:28.097Z,3.10
2022-12-31T22:29:53.422Z,2.70
2022-12-31T22:32:23.838Z,2.60
2022-12-31T22:34:54.184Z,3.70
2022-12-31T22:37:55.822Z,3.30
2022-12-31T22:40:14.973Z,2.80
2022-12-31T22:42:45.360Z,3.10
2022-12-31T22:45:16.033Z,4.80
2022-12-31T22:47:46.487Z,2.80
2022-12-31T22:50:17.206Z,2.60
2022-12-31T22:52:47.542Z,3.00
2022-12-31T22:55:17.922Z,2.80
2022-12-31T22:57:48.219Z,2.80
2022-12-31T23:00:20.234Z,2.40
2022-12-31T23:02:50.577Z,2.90
2022-12-31T23:05:20.999Z,4.00
2022-12-31T23:07:51.370Z,6.40
2022-12-31T23:10:39.319Z,6.80
2022-12-31T23:13:27.316Z,7.00
2022-12-31T23:16:15.331Z,9.10
2022-12-31T23:19:05.540Z,12.20
2022-12-31T23:21:53.717Z,12.70
2022-12-31T23:24:26.647Z,12.20
2022-12-31T23:26:57.819Z,11.90
2022-12-31T23:29:28.675Z,9.80
2022-12-31T23:31:59.208Z,9.70
2022-12-31T23:34:29.631Z,13.70
2022-12-31T23:36:59.920Z,12.20
2022-12-31T23:39:30.426Z,12.30
2022-12-31T23:42:01.998Z,11.70
2022-12-31T23:44:32.358Z,15.40
2022-12-31T23:47:02.836Z,16.60
2022-12-31T23:49:33.199Z,16.50
2022-12-31T23:52:03.422Z,20.50
2022-12-31T23:54:34.980Z,20.20
2022-12-31T23:57:05.456Z,16.00
2022-12-31T23:59:35.705Z,20.80
